• Join FlightAware (Why Join?)
  • Login
  • US Flag 
07:13PM EDT


 

Airport Tracker/Info


-or-


 

Live Flight TrackerFlight Track Log ✈ N960DL ✈ 30-Apr-2013 ✈ KORD - KATL

Flight Track Log - Related Links

Times and Time Zones

All times are in EDT time to prevent confusion due to time zone crossing. See the N960DL flight status page for this flight to view local times or setup timezone preferences in your user account.

Time Position Orientation Groundspeed Altitude Reporting Facility
EDT Latitude Longitude Course Direction KTS MPH feet Rate Location/Type
07:06PM 41.9000 -87.9000 180° South 199 229 3,300  Level Chicago TRACON
07:08PM 41.6721 -87.7615 180° South  Level Estimated
07:08PM 41.8214 -87.9567 208° Southwest 234 269 7,400  Level Chicago Center
07:09PM 41.5689 -87.7133 176° South  Level Estimated
07:09PM 41.7344 -87.9506 177° South 266 306 10,900  Level Chicago Center
07:10PM 41.4817 -87.8013 217° Southwest  Level FlightAware Approximate
07:10PM 41.6536 -87.9372 173° South 289 333 12,600  Level Chicago Center
07:11PM 41.3789 -87.7518 180° South  Level Estimated
07:11PM 41.5539 -87.9139 170° South 363 418 14,100  Level Chicago Center
07:12PM 41.2761 -87.7024 180° South  Level Estimated
07:12PM 41.4428 -87.8864 169° South 393 452 16,500  Level Chicago Center
07:13PM 41.3267 -87.8869 180° South 414 476 19,000 1,980 Climbing Chicago Center
07:14PM 41.2072 -87.8922 182° South 421 484 20,700 1,740 Climbing Chicago Center
07:15PM 41.0806 -87.8850 178° South 453 521 22,600 2,040 Climbing Chicago Center
07:16PM 40.9289 -87.8789 178° South 454 522 25,000 2,100 Climbing Chicago Center
07:17PM 40.8019 -87.8747 179° South 456 525 27,000 1,740 Climbing Chicago Center
07:18PM 40.6758 -87.8678 178° South 456 525 28,700 1,560 Climbing Chicago Center
07:19PM 40.5506 -87.8361 169° South 460 529 30,300 1,440 Climbing Chicago Center
07:20PM 40.4289 -87.8011 168° South 453 521 31,700 1,260 Climbing Chicago Center
07:21PM 40.3175 -87.7739 169° South 450 518 32,800 1,020 Climbing Indianapolis Center
07:22PM 40.1917 -87.7419 169° South 455 524 33,700 960 Climbing Indianapolis Center
07:23PM 40.0503 -87.7019 168° South 446 513 34,800 600 Climbing Indianapolis Center
07:24PM 39.9275 -87.6683 168° South 450 518 35,000 60 Climbing Indianapolis Center
07:25PM 39.8050 -87.6336 168° South 449 517 35,000  Level Indianapolis Center
07:26PM 39.6806 -87.6000 168° South 454 522 35,000  Level Indianapolis Center
07:27PM 39.5561 -87.5675 169° South 455 524 35,000  Level Indianapolis Center
07:28PM 39.4319 -87.5333 168° South 454 522 35,000  Level Indianapolis Center
07:29PM 39.2847 -87.4942 168° South 460 529 35,000  Level Indianapolis Center
07:30PM 39.1581 -87.4603 168° South 463 533 35,000  Level Indianapolis Center
07:31PM 39.0336 -87.4278 169° South 460 529 35,000  Level Indianapolis Center
07:32PM 38.9086 -87.3942 168° South 459 528 35,000  Level Indianapolis Center
07:34PM 38.7822 -87.3603 168° South 463 533 35,000  Level Indianapolis Center
07:35PM 38.6581 -87.3272 168° South 457 526 35,000  Level Indianapolis Center
07:36PM 38.5350 -87.2958 169° South 453 521 35,000  Level Indianapolis Center
07:37PM 38.3869 -87.2594 169° South 455 524 35,000  Level Indianapolis Center
07:38PM 38.2642 -87.2286 169° South 460 529 35,000  Level Indianapolis Center
07:39PM 38.1411 -87.1947 168° South 460 529 35,000  Level Indianapolis Center
07:40PM 38.0178 -87.1625 168° South 455 524 35,000  Level Indianapolis Center
07:41PM 37.8953 -87.1294 168° South 451 519 35,000  Level Indianapolis Center
07:42PM 37.7475 -87.0911 168° South 450 518 35,000  Level Indianapolis Center
07:43PM 37.6253 -87.0592 168° South 448 516 35,000  Level Indianapolis Center
07:44PM 37.5164 -87.0314 169° South 447 514 35,000  Level Memphis Center
07:45PM 37.3928 -87.0025 169° South 452 520 35,000  Level Memphis Center
07:46PM 37.2711 -86.9711 168° South 452 520 35,000  Level Memphis Center
07:47PM 37.1494 -86.9425 169° South 447 514 35,000  Level Memphis Center
07:48PM 37.0236 -86.9117 169° South 457 526 35,000  Level Memphis Center
07:49PM 36.8975 -86.8781 168° South 457 526 35,000  Level Memphis Center
07:50PM 36.7883 -86.8492 168° South 457 526 35,000  Level Memphis Center
07:51PM 36.6644 -86.8158 168° South 452 520 35,000  Level Memphis Center
07:52PM 36.5383 -86.7800 167° South 452 520 35,000 -420 Level Memphis Center
07:53PM 36.4103 -86.7469 168° South 458 527 34,200 -1,020 Descending Memphis Center
07:54PM 36.2717 -86.7094 168° South 471 542 33,000 -600 Descending Memphis Center
07:55PM 36.1478 -86.6789 169° South 463 533 33,000  Level Memphis Center
07:56PM 36.0347 -86.5967 150° Southeast 458 527 33,000 -300 Level Memphis Center
07:57PM 35.9236 -86.5044 146° Southeast 473 544 32,500 -720 Descending Memphis Center
07:59PM 35.7217 -86.3408 147° Southeast 469 540 31,000 -540 Descending Atlanta Center
08:00PM 35.6150 -86.2536 146° Southeast 469 540 31,000  Level Atlanta Center
08:01PM 35.5036 -86.1689 148° Southeast 474 545 31,000 -660 Level Atlanta Center
08:02PM 35.3822 -86.0742 148° Southeast 474 545 29,700 -2,100 Descending Atlanta Center
08:03PM 35.2792 -85.9900 146° Southeast 468 539 26,900 -2,760 Descending Atlanta Center
08:04PM 35.1742 -85.9089 148° Southeast 461 531 24,200 -1,500 Descending Atlanta Center
08:05PM 35.0731 -85.8281 147° Southeast 450 518 24,000 -120 Descending Atlanta Center
08:06PM 34.9700 -85.7497 148° Southeast 445 512 24,000  Level Atlanta Center
08:07PM 34.8667 -85.6692 147° Southeast 445 512 24,000  Level Atlanta Center
08:08PM 34.7614 -85.5861 147° Southeast 445 512 24,000  Level Atlanta Center
08:09PM 34.6600 -85.5061 147° Southeast 445 512 24,000 -780 Level Atlanta Center
08:10PM 34.5567 -85.4261 147° Southeast 450 518 22,500 -2,100 Descending Atlanta Center
08:11PM 34.4572 -85.3514 148° Southeast 444 511 19,900 -2,640 Descending Atlanta Center
08:12PM 34.3642 -85.2744 146° Southeast 426 490 17,300 -2,700 Descending Atlanta Center
08:13PM 34.2708 -85.2025 147° Southeast 409 471 14,500 -2,160 Descending Atlanta Center
08:14PM 34.1817 -85.1361 148° Southeast 391 450 13,000 -780 Descending Atlanta Center
08:15PM 34.1178 -85.0650 137° Southeast 342 394 13,000  Level Atlanta Center
08:16PM 34.0597 -84.9892 133° Southeast 311 358 13,000 -840 Level Atlanta Center
08:17PM 34.0019 -84.9133 133° Southeast 299 344 11,400 -1,560 Descending Atlanta Center
08:18PM 33.9439 -84.8425 135° Southeast 299 344 9,900 -1,200 Descending Atlanta Center
08:19PM 33.8711 -84.8344 175° South 264 304 9,000 -1,380 Descending Atlanta Center
08:20PM 33.8022 -84.8339 180° South 251 289 7,200 -1,500 Descending Atlanta Center
08:21PM 33.7353 -84.8306 178° South 246 283 6,000 -600 Descending Atlanta Center
08:22PM 33.6728 -84.8300 180° South 239 275 6,000  Level Atlanta Center
08:23PM 33.6500 -84.7850 121° Southeast 175 201 6,000 -480 Level Atlanta Center
08:24PM 33.6500 -84.7000 90° East 191 220 5,000 -840 Descending Atlanta TRACON
08:25PM 33.6500 -84.6333 90° East 188 216 4,200 -900 Descending Atlanta TRACON
08:26PM 33.6500 -84.5833 90° East 174 200 3,300 -1,020 Descending Atlanta TRACON